Time;durP1;ratioP1;P1;durP2;ratioP2;P2;SDS_P1;SDS_P2;PMS_P1;PMS_P2;Temp;Humidity;BMP_temperature;BMP_pressure;BME280_temperature;BME280_humidity;BME280_pressure;Samples;Min_cycle;Max_cycle;Signal;HPM_P1;HPM_P2
2021/03/09 00:00:16;;;;;;;23.38;11.52;;;2.70;95.40;;;;;;5042023;28;20037;-77
2021/03/09 00:02:41;;;;;;;22.20;11.75;;;2.70;95.70;;;;;;5041189;28;20044;-78
2021/03/09 00:05:08;;;;;;;24.70;12.10;;;2.70;95.90;;;;;;5044647;28;20128;-78
2021/03/09 00:07:33;;;;;;;28.35;12.00;;;2.70;95.70;;;;;;5040807;28;20029;-77
2021/03/09 00:10:00;;;;;;;22.73;11.50;;;2.70;95.70;;;;;;5048310;28;20042;-78
2021/03/09 00:12:27;;;;;;;26.52;13.32;;;2.70;95.90;;;;;;5049555;28;20750;-80
2021/03/09 00:14:53;;;;;;;22.23;11.05;;;2.70;96.10;;;;;;5043781;28;20497;-78
2021/03/09 00:17:19;;;;;;;25.65;11.52;;;2.70;96.30;;;;;;5054486;28;20045;-79
2021/03/09 00:19:45;;;;;;;21.50;11.43;;;2.70;95.90;;;;;;5049164;28;20482;-79
2021/03/09 00:22:11;;;;;;;20.23;11.38;;;2.70;96.10;;;;;;5053596;28;20040;-77
2021/03/09 00:24:37;;;;;;;23.02;11.73;;;2.70;96.10;;;;;;5046956;28;20041;-80
2021/03/09 00:27:03;;;;;;;22.38;11.75;;;2.70;96.10;;;;;;5050503;28;20038;-77
2021/03/09 00:29:29;;;;;;;27.05;11.43;;;;;;;;;;5037593;28;20044;-79
2021/03/09 00:31:55;;;;;;;21.45;11.20;;;2.70;96.00;;;;;;5049783;28;20119;-79
2021/03/09 00:34:23;;;;;;;21.65;11.50;;;2.70;96.20;;;;;;5048310;28;20102;-79
2021/03/09 00:36:49;;;;;;;23.92;11.80;;;2.90;96.30;;;;;;5047143;28;20033;-78
2021/03/09 00:39:14;;;;;;;23.70;11.65;;;2.60;96.30;;;;;;5045386;28;20052;-78
2021/03/09 00:41:40;;;;;;;24.65;11.38;;;2.60;96.40;;;;;;5045434;28;20068;-79
2021/03/09 00:44:06;;;;;;;20.23;11.25;;;2.60;96.40;;;;;;5039722;28;20053;-78
2021/03/09 00:46:32;;;;;;;23.20;11.82;;;2.60;96.20;;;;;;5047988;28;20033;-78
2021/03/09 00:48:59;;;;;;;25.60;12.63;;;;;;;;;;5056461;28;20495;-79
2021/03/09 00:51:25;;;;;;;27.27;12.32;;;;;;;;;;5049816;28;20473;-76
2021/03/09 00:53:51;;;;;;;29.63;12.70;;;;;;;;;;5044746;28;20407;-78
2021/03/09 00:56:17;;;;;;;24.17;12.50;;;2.40;96.90;;;;;;5049989;28;20151;-75
2021/03/09 00:58:43;;;;;;;23.50;11.88;;;2.40;97.00;;;;;;5043288;28;20173;-78
2021/03/09 01:01:08;;;;;;;26.85;12.90;;;2.30;97.10;;;;;;5049503;28;20029;-80
2021/03/09 01:03:34;;;;;;;23.60;12.68;;;2.30;97.20;;;;;;5045810;28;20422;-78
2021/03/09 01:06:00;;;;;;;25.27;13.10;;;2.30;97.20;;;;;;5047191;28;20049;-78
2021/03/09 01:08:26;;;;;;;23.50;13.55;;;2.30;97.20;;;;;;5044217;28;20040;-77
2021/03/09 01:10:53;;;;;;;26.40;12.15;;;2.30;97.60;;;;;;5056552;28;20095;-80
2021/03/09 01:13:19;;;;;;;23.85;12.40;;;6.20;98.80;;;;;;5051501;28;20043;-79
2021/03/09 01:15:45;;;;;;;26.23;12.55;;;2.30;97.90;;;;;;5045858;28;20049;-78
2021/03/09 01:18:11;;;;;;;25.85;12.32;;;2.20;98.00;;;;;;5050313;28;20418;-78
2021/03/09 01:20:37;;;;;;;21.77;12.00;;;2.30;98.00;;;;;;5043718;28;20169;-77
2021/03/09 01:23:02;;;;;;;22.33;11.68;;;2.20;97.70;;;;;;5042928;28;20048;-77
2021/03/09 01:25:28;;;;;;;24.25;12.60;;;2.30;97.70;;;;;;5040317;28;20613;-79
2021/03/09 01:27:54;;;;;;;22.42;12.68;;;2.20;97.70;;;;;;5048669;28;20048;-78
2021/03/09 01:30:20;;;;;;;27.27;12.93;;;2.20;97.60;;;;;;5051342;28;20066;-79
2021/03/09 01:32:46;;;;;;;27.10;12.80;;;2.20;97.80;;;;;;5047784;28;20044;-78
2021/03/09 01:35:13;;;;;;;23.35;12.57;;;2.10;97.90;;;;;;5047990;28;20037;-78
2021/03/09 01:37:39;;;;;;;29.08;12.90;;;2.10;98.10;;;;;;5048933;28;20174;-77
2021/03/09 01:40:07;;;;;;;26.40;13.13;;;2.20;98.30;;;;;;5047423;28;20120;-78
2021/03/09 01:42:34;;;;;;;28.27;13.88;;;2.10;98.10;;;;;;5047376;28;20048;-78
2021/03/09 01:45:00;;;;;;;28.17;12.82;;;;;;;;;;5046886;28;20055;-79
2021/03/09 01:47:28;;;;;;;27.05;13.73;;;2.10;98.20;;;;;;5052210;28;20602;-78
2021/03/09 01:49:54;;;;;;;25.90;12.35;;;2.00;98.40;;;;;;5046005;28;20032;-79
2021/03/09 01:52:20;;;;;;;28.20;12.55;;;2.00;98.60;;;;;;5047943;28;20090;-79
2021/03/09 01:54:46;;;;;;;26.67;13.13;;;2.00;98.60;;;;;;5045759;28;20044;-78
2021/03/09 01:57:11;;;;;;;27.65;12.98;;;2.00;98.70;;;;;;5046219;28;20510;-77
2021/03/09 01:59:38;;;;;;;26.55;13.23;;;2.00;98.70;;;;;;5048045;28;20135;-78
2021/03/09 02:02:05;;;;;;;28.95;13.38;;;2.00;98.90;;;;;;5048976;28;20037;-78
2021/03/09 02:04:32;;;;;;;28.90;13.60;;;;;;;;;;5042910;28;20021;-77
2021/03/09 02:06:58;;;;;;;26.70;12.32;;;2.00;98.90;;;;;;5048918;28;20127;-80
2021/03/09 02:09:24;;;;;;;31.58;15.07;;;2.00;99.00;;;;;;5048381;28;20072;-78
2021/03/09 02:12:03;;;;;;;28.40;12.93;;;2.00;98.90;;;;;;5049826;28;20058;-79
2021/03/09 02:14:40;;;;;;;27.67;12.88;;;2.00;99.00;;;;;;5048657;28;20076;-78
2021/03/09 02:17:37;;;;;;;25.98;13.93;;;2.00;99.00;;;;;;5048012;28;20052;-78
2021/03/09 02:20:24;;;;;;;24.02;12.57;;;2.10;98.90;;;;;;5048279;28;20044;-77
2021/03/09 02:22:53;;;;;;;25.38;13.23;;;2.10;99.10;;;;;;5054615;28;20600;-77
2021/03/09 02:25:46;;;;;;;25.10;12.30;;;2.10;98.90;;;;;;5049989;28;20060;-76
2021/03/09 02:28:50;;;;;;;26.42;13.40;;;2.10;98.80;;;;;;5049351;28;20036;-78
2021/03/09 02:31:17;;;;;;;33.20;14.32;;;2.20;98.70;;;;;;5046374;28;20175;-78
2021/03/09 02:33:49;;;;;;;25.13;12.23;;;2.20;98.70;;;;;;5045597;28;20045;-79
2021/03/09 02:36:23;;;;;;;24.55;12.52;;;2.20;98.80;;;;;;5050431;28;20067;-77
2021/03/09 02:38:56;;;;;;;27.67;13.80;;;2.30;98.50;;;;;;5047134;28;20510;-78
2021/03/09 02:41:23;;;;;;;29.92;12.95;;;2.20;98.60;;;;;;5058392;28;20042;-79
2021/03/09 02:43:52;;;;;;;28.17;13.57;;;2.30;98.80;;;;;;5047755;28;20041;-78
2021/03/09 02:46:21;;;;;;;26.10;13.25;;;2.90;99.10;;;;;;5047315;28;20039;-79
2021/03/09 02:48:47;;;;;;;28.67;13.75;;;2.30;98.70;;;;;;5045845;28;20120;-78
2021/03/09 02:51:14;;;;;;;26.95;14.15;;;2.40;98.60;;;;;;5046843;28;20037;-79
2021/03/09 02:53:55;;;;;;;25.92;13.93;;;2.40;98.50;;;;;;5043120;28;20047;-79
2021/03/09 02:56:23;;;;;;;30.75;13.90;;;2.40;98.80;;;;;;5045704;28;20044;-78
2021/03/09 02:58:52;;;;;;;34.05;13.80;;;2.40;98.80;;;;;;5047106;28;20098;-78
2021/03/09 03:01:19;;;;;;;27.08;13.13;;;2.40;98.60;;;;;;5045861;28;20045;-78
2021/03/09 03:03:47;;;;;;;27.05;13.32;;;2.40;98.80;;;;;;5052182;28;20033;-78
2021/03/09 03:06:15;;;;;;;28.00;13.98;;;2.40;98.70;;;;;;5055934;28;20041;-78
2021/03/09 03:08:43;;;;;;;29.02;14.13;;;2.50;98.70;;;;;;5043655;28;20041;-80
2021/03/09 03:11:09;;;;;;;28.15;13.98;;;0.40;97.70;;;;;;5052319;28;20053;-78
2021/03/09 03:13:35;;;;;;;31.90;14.93;;;2.50;98.40;;;;;;5053345;28;20033;-78
2021/03/09 03:16:03;;;;;;;31.15;14.07;;;2.50;98.20;;;;;;5051893;28;20053;-80
2021/03/09 03:18:31;;;;;;;28.85;14.30;;;2.40;98.50;;;;;;5054569;28;20041;-78
2021/03/09 03:21:02;;;;;;;32.40;15.48;;;2.40;98.50;;;;;;5054752;28;20041;-78
2021/03/09 03:23:28;;;;;;;27.98;14.48;;;;;;;;;;5050157;28;20036;-78
2021/03/09 03:25:56;;;;;;;31.60;15.13;;;2.40;98.80;;;;;;5053021;28;21220;-79
2021/03/09 03:28:23;;;;;;;33.63;15.45;;;2.30;98.80;;;;;;5053336;28;20029;-78
2021/03/09 03:30:50;;;;;;;30.95;15.45;;;2.30;99.20;;;;;;5051308;28;20025;-78
2021/03/09 03:33:16;;;;;;;29.63;15.13;;;3.60;99.50;;;;;;5053619;28;20566;-80
2021/03/09 03:35:44;;;;;;;28.67;14.65;;;2.20;99.10;;;;;;5066205;28;20088;-78
2021/03/09 03:38:14;;;;;;;26.73;14.05;;;4.60;99.80;;;;;;5042834;28;20048;-78
2021/03/09 03:40:41;;;;;;;32.40;14.23;;;2.40;99.20;;;;;;5050207;28;20028;-78
2021/03/09 03:43:09;;;;;;;30.70;15.00;;;4.10;99.30;;;;;;5047138;28;21197;-78
2021/03/09 03:45:35;;;;;;;30.58;14.63;;;2.40;98.90;;;;;;5046854;28;20033;-80
2021/03/09 03:48:01;;;;;;;29.77;15.23;;;;;;;;;;5051276;28;20059;-78
2021/03/09 03:50:29;;;;;;;33.20;14.80;;;2.40;99.00;;;;;;5051194;28;20033;-78
2021/03/09 03:53:25;;;;;;;31.92;15.65;;;2.50;99.30;;;;;;5047493;28;20041;-78
2021/03/09 03:56:14;;;;;;;32.65;15.32;;;2.50;99.20;;;;;;5048526;28;20095;-76
2021/03/09 03:58:45;;;;;;;30.23;14.88;;;2.60;99.10;;;;;;5047458;28;20057;-78
2021/03/09 04:01:14;;;;;;;28.95;14.68;;;2.60;98.90;;;;;;5048163;28;20052;-78
2021/03/09 04:03:41;;;;;;;31.00;14.43;;;2.50;98.80;;;;;;5047731;28;20045;-80
2021/03/09 04:06:08;;;;;;;33.30;15.38;;;2.60;99.00;;;;;;5049576;28;20037;-80
2021/03/09 04:08:38;;;;;;;34.45;16.70;;;2.50;99.00;;;;;;5054606;28;20036;-79
2021/03/09 04:11:06;;;;;;;31.87;15.30;;;2.50;99.10;;;;;;5049318;28;20033;-77
2021/03/09 04:13:37;;;;;;;31.60;14.93;;;3.80;99.60;;;;;;5049776;28;20049;-77
2021/03/09 04:16:04;;;;;;;31.38;16.40;;;2.50;99.10;;;;;;5044341;28;20506;-76
2021/03/09 04:18:31;;;;;;;31.15;15.35;;;2.60;99.10;;;;;;5049026;28;20045;-78
2021/03/09 04:20:58;;;;;;;29.85;14.98;;;2.50;99.10;;;;;;5046475;28;20108;-77
2021/03/09 04:23:26;;;;;;;32.90;15.10;;;2.50;99.20;;;;;;5039836;28;20037;-78
2021/03/09 04:25:53;;;;;;;31.35;15.32;;;2.60;99.10;;;;;;5039755;28;20044;-78
2021/03/09 04:28:20;;;;;;;32.13;15.27;;;2.50;99.30;;;;;;5038437;28;20033;-77
2021/03/09 04:30:46;;;;;;;29.25;15.35;;;2.60;99.30;;;;;;5042412;28;20049;-77
2021/03/09 04:33:11;;;;;;;30.70;15.73;;;2.60;99.20;;;;;;5042369;28;20025;-78
2021/03/09 04:35:38;;;;;;;33.75;15.80;;;2.60;99.10;;;;;;5049084;28;20052;-78
2021/03/09 04:38:04;;;;;;;30.35;14.57;;;2.60;99.20;;;;;;5050692;28;20072;-79
2021/03/09 04:40:32;;;;;;;28.65;14.75;;;2.60;99.00;;;;;;5052747;28;20123;-76
2021/03/09 04:42:58;;;;;;;28.98;13.98;;;2.60;99.00;;;;;;5048217;28;20078;-78
2021/03/09 04:45:24;;;;;;;29.45;15.90;;;2.60;99.10;;;;;;5050397;28;20055;-77
2021/03/09 04:47:51;;;;;;;30.05;14.93;;;2.60;99.10;;;;;;5047871;28;20041;-77
2021/03/09 04:50:17;;;;;;;31.45;15.45;;;2.60;99.20;;;;;;5050121;28;20044;-77
2021/03/09 04:52:46;;;;;;;35.67;15.15;;;2.60;99.10;;;;;;5047187;28;20041;-78
2021/03/09 04:55:17;;;;;;;31.80;16.05;;;2.60;99.20;;;;;;5047445;28;20040;-77
2021/03/09 04:57:43;;;;;;;28.80;14.85;;;2.50;99.30;;;;;;5048889;28;20045;-76
2021/03/09 05:00:12;;;;;;;32.72;15.65;;;2.50;99.40;;;;;;5046752;28;20037;-77
2021/03/09 05:02:39;;;;;;;34.10;15.80;;;2.50;99.50;;;;;;5048702;28;20084;-77
2021/03/09 05:05:06;;;;;;;29.17;15.63;;;2.80;99.70;;;;;;5046474;28;20136;-77
2021/03/09 05:07:32;;;;;;;40.67;15.65;;;2.50;99.60;;;;;;5045325;28;20490;-77
2021/03/09 05:09:58;;;;;;;33.53;15.82;;;2.60;99.70;;;;;;5041622;28;20041;-75
2021/03/09 05:12:23;;;;;;;33.47;16.08;;;2.60;99.60;;;;;;5041215;28;20029;-78
2021/03/09 05:14:49;;;;;;;36.83;17.05;;;2.60;99.80;;;;;;5047600;28;20128;-77
2021/03/09 05:17:15;;;;;;;31.95;16.15;;;2.70;99.50;;;;;;5047078;28;20111;-76
2021/03/09 05:19:41;;;;;;;31.55;15.68;;;2.70;99.50;;;;;;5046355;28;20101;-77
2021/03/09 05:22:07;;;;;;;33.92;15.55;;;;;;;;;;5041283;28;20037;-77
2021/03/09 05:24:33;;;;;;;33.80;15.85;;;2.70;99.30;;;;;;5045776;28;20387;-75
2021/03/09 05:26:59;;;;;;;33.92;16.83;;;2.70;99.50;;;;;;5043154;28;20037;-76
2021/03/09 05:29:25;;;;;;;35.83;16.63;;;2.70;99.40;;;;;;5038469;28;20033;-76
2021/03/09 05:31:51;;;;;;;36.38;16.08;;;2.70;99.40;;;;;;5044709;28;20460;-76
2021/03/09 05:34:16;;;;;;;35.60;16.67;;;2.70;99.50;;;;;;5040602;28;20027;-75
2021/03/09 05:36:42;;;;;;;34.05;16.13;;;2.70;99.50;;;;;;5043361;28;20048;-75
2021/03/09 05:39:08;;;;;;;35.17;16.60;;;2.70;99.50;;;;;;5040838;28;20037;-76
2021/03/09 05:41:34;;;;;;;35.03;16.20;;;2.70;99.50;;;;;;5040004;28;20044;-75
2021/03/09 05:44:02;;;;;;;35.25;16.52;;;2.70;99.60;;;;;;5041488;28;20041;-76
2021/03/09 05:46:30;;;;;;;32.60;16.38;;;2.70;99.50;;;;;;5044355;28;20037;-76
2021/03/09 05:48:56;;;;;;;31.77;15.80;;;3.10;99.60;;;;;;5038059;28;20911;-77
2021/03/09 05:51:22;;;;;;;38.03;17.00;;;2.70;99.30;;;;;;5043481;28;20032;-77
2021/03/09 05:53:47;;;;;;;33.85;16.23;;;2.70;99.50;;;;;;5039914;28;20029;-74
2021/03/09 05:56:13;;;;;;;36.88;17.40;;;2.60;99.50;;;;;;5042730;28;20521;-77
2021/03/09 05:58:39;;;;;;;35.10;15.18;;;2.70;99.70;;;;;;5053007;28;20033;-76
2021/03/09 06:01:05;;;;;;;37.78;16.35;;;2.60;99.60;;;;;;5043905;28;20048;-76
2021/03/09 06:03:31;;;;;;;36.13;16.40;;;2.60;99.80;;;;;;5044892;28;20485;-75
2021/03/09 06:05:57;;;;;;;31.20;15.80;;;2.60;99.70;;;;;;5044586;28;20048;-76
2021/03/09 06:08:23;;;;;;;36.97;17.00;;;2.60;99.70;;;;;;5039066;28;20041;-76
2021/03/09 06:10:49;;;;;;;33.85;16.20;;;2.60;99.70;;;;;;5034003;28;20036;-76
2021/03/09 06:13:35;;;;;;;40.92;18.80;;;2.60;99.80;;;;;;5040746;28;20037;-76
2021/03/09 06:16:01;;;;;;;35.05;17.05;;;2.60;99.90;;;;;;5043369;28;20039;-76
2021/03/09 06:18:27;;;;;;;34.42;16.13;;;2.60;99.90;;;;;;5039797;28;20049;-76
2021/03/09 06:21:13;;;;;;;34.85;16.17;;;3.70;99.90;;;;;;5043189;28;20482;-76
2021/03/09 06:23:40;;;;;;;30.73;15.32;;;2.60;99.80;;;;;;5034792;28;20051;-75
2021/03/09 06:26:36;;;;;;;33.05;16.17;;;2.70;99.80;;;;;;5036996;28;20045;-75
2021/03/09 06:29:16;;;;;;;39.10;17.20;;;2.70;99.90;;;;;;5035361;28;20030;-78
2021/03/09 06:32:03;;;;;;;33.17;15.23;;;2.60;99.90;;;;;;5040485;28;20679;-77
2021/03/09 06:34:33;;;;;;;35.85;17.83;;;2.70;99.90;;;;;;5048642;28;20043;-76
2021/03/09 06:37:09;;;;;;;36.80;16.83;;;2.70;99.90;;;;;;5046553;28;20414;-78
2021/03/09 06:39:41;;;;;;;37.15;17.95;;;1.80;99.90;;;;;;5050197;28;20229;-77
2021/03/09 06:42:08;;;;;;;34.20;16.85;;;2.80;99.90;;;;;;5048311;28;20025;-77
2021/03/09 06:44:35;;;;;;;33.40;17.17;;;2.80;99.90;;;;;;5047865;28;20138;-77
2021/03/09 06:47:01;;;;;;;39.33;18.20;;;2.80;99.90;;;;;;5049784;28;20076;-78
2021/03/09 06:49:27;;;;;;;32.30;17.17;;;2.80;99.70;;;;;;5045498;28;20466;-76
2021/03/09 06:51:53;;;;;;;33.03;16.80;;;2.80;99.90;;;;;;5044913;28;20151;-77
2021/03/09 06:54:19;;;;;;;31.70;15.98;;;2.90;99.70;;;;;;5048266;28;20092;-77
2021/03/09 06:56:46;;;;;;;35.85;17.63;;;3.00;99.70;;;;;;5047250;28;20556;-77
2021/03/09 06:59:26;;;;;;;39.30;18.15;;;3.00;99.60;;;;;;5048421;28;20020;-77
2021/03/09 07:02:17;;;;;;;37.38;18.02;;;3.10;99.40;;;;;;5044596;28;20143;-77
2021/03/09 07:05:03;;;;;;;38.40;17.65;;;3.20;99.50;;;;;;5037137;28;20044;-77
2021/03/09 07:07:34;;;;;;;35.88;17.60;;;3.30;99.20;;;;;;5059232;28;20053;-78
2021/03/09 07:10:17;;;;;;;32.85;16.90;;;3.30;99.00;;;;;;5044062;28;20041;-76
2021/03/09 07:12:45;;;;;;;37.15;17.25;;;3.40;98.90;;;;;;5041099;28;20057;-76
2021/03/09 07:15:14;;;;;;;40.15;17.75;;;3.40;98.90;;;;;;5046180;28;20122;-78
2021/03/09 07:17:40;;;;;;;34.72;17.60;;;3.40;98.90;;;;;;5044871;28;20037;-77
2021/03/09 07:20:12;;;;;;;37.95;18.27;;;3.50;98.70;;;;;;5046181;28;20052;-77
2021/03/09 07:22:39;;;;;;;39.40;17.58;;;2.30;98.10;;;;;;5043993;28;20036;-75
2021/03/09 07:25:11;;;;;;;34.10;16.48;;;3.60;98.60;;;;;;5041614;28;20401;-76
2021/03/09 07:27:54;;;;;;;38.75;18.15;;;3.70;98.30;;;;;;5047887;28;20083;-75
2021/03/09 07:30:22;;;;;;;39.30;18.52;;;3.70;98.00;;;;;;5045258;28;20029;-77
2021/03/09 07:32:50;;;;;;;48.45;18.10;;;3.70;98.30;;;;;;5042854;28;20026;-76
2021/03/09 07:35:20;;;;;;;54.40;19.85;;;3.70;98.50;;;;;;5048053;28;20119;-76
2021/03/09 07:37:47;;;;;;;41.75;17.90;;;3.70;98.20;;;;;;5043528;28;20049;-77
2021/03/09 07:40:15;;;;;;;38.17;17.38;;;3.80;98.30;;;;;;5051079;28;20045;-76
2021/03/09 07:42:41;;;;;;;39.97;18.70;;;3.90;98.00;;;;;;5059212;28;20415;-77
2021/03/09 07:45:16;;;;;;;39.65;19.40;;;3.90;98.10;;;;;;5041177;28;20044;-76
2021/03/09 07:47:46;;;;;;;38.88;18.45;;;3.90;97.90;;;;;;5038673;28;20215;-76
2021/03/09 07:50:14;;;;;;;35.15;18.45;;;3.90;97.80;;;;;;5036545;28;20607;-78
2021/03/09 07:53:07;;;;;;;40.50;19.85;;;4.00;97.80;;;;;;5046488;28;20047;-78
2021/03/09 07:55:36;;;;;;;39.15;18.38;;;4.00;97.80;;;;;;5045479;28;20033;-76
2021/03/09 07:58:22;;;;;;;38.40;18.80;;;6.50;98.50;;;;;;5040323;28;20091;-80
2021/03/09 08:00:51;;;;;;;42.90;19.60;;;4.10;97.80;;;;;;5034130;28;20062;-78
2021/03/09 08:03:19;;;;;;;40.85;19.60;;;4.20;97.60;;;;;;5039132;28;20048;-76
2021/03/09 08:05:51;;;;;;;45.28;19.95;;;4.20;97.60;;;;;;5043869;28;20033;-76
2021/03/09 08:08:37;;;;;;;39.05;19.17;;;4.30;97.30;;;;;;5047493;28;20033;-77
2021/03/09 08:11:27;;;;;;;37.97;19.42;;;4.40;97.30;;;;;;5039684;28;20036;-76
2021/03/09 08:14:05;;;;;;;35.35;18.23;;;4.50;96.80;;;;;;5038701;28;20033;-76
2021/03/09 08:16:38;;;;;;;35.95;17.17;;;4.70;96.40;;;;;;5035185;28;20030;-78
2021/03/09 08:19:37;;;;;;;41.85;19.33;;;4.70;96.20;;;;;;5040339;28;20045;-77
2021/03/09 08:22:04;;;;;;;40.08;19.75;;;4.90;95.50;;;;;;5047007;28;20061;-77
2021/03/09 08:24:42;;;;;;;36.33;17.75;;;4.90;95.60;;;;;;5047413;28;20046;-76
2021/03/09 08:27:35;;;;;;;39.35;20.50;;;4.90;96.00;;;;;;5053262;28;20033;-77
2021/03/09 08:30:30;;;;;;;40.10;19.65;;;5.00;95.90;;;;;;5049349;28;20021;-75
2021/03/09 08:33:23;;;;;;;37.63;18.52;;;5.20;94.90;;;;;;5041920;28;20049;-78
2021/03/09 08:35:48;;;;;;;40.65;20.20;;;5.10;95.10;;;;;;5040673;28;20048;-77
2021/03/09 08:38:16;;;;;;;37.50;19.42;;;5.30;95.10;;;;;;5050646;28;20037;-75
2021/03/09 08:41:04;;;;;;;36.88;20.20;;;5.30;94.80;;;;;;5039595;28;20045;-78
2021/03/09 08:43:30;;;;;;;41.20;21.83;;;5.40;94.40;;;;;;5045183;28;20043;-77
2021/03/09 08:45:58;;;;;;;47.85;24.48;;;5.30;94.60;;;;;;5040282;28;20506;-78
2021/03/09 08:48:46;;;;;;;48.50;23.92;;;5.30;94.60;;;;;;5052570;28;20040;-77
2021/03/09 08:51:41;;;;;;;54.15;25.38;;;5.50;94.30;;;;;;5040676;28;20030;-78
2021/03/09 08:54:28;;;;;;;49.40;26.80;;;5.50;94.40;;;;;;5061542;28;20047;-75
2021/03/09 08:56:56;;;;;;;45.03;23.67;;;5.60;94.40;;;;;;5045177;28;20086;-76
2021/03/09 08:59:24;;;;;;;46.05;23.30;;;5.60;94.60;;;;;;5048352;28;20049;-75
2021/03/09 09:01:52;;;;;;;48.17;24.25;;;5.60;94.40;;;;;;5045469;28;20511;-76
2021/03/09 09:04:19;;;;;;;43.45;23.30;;;5.70;94.50;;;;;;5040854;28;20045;-77
2021/03/09 09:06:46;;;;;;;45.38;22.00;;;5.80;94.20;;;;;;5040603;28;20045;-78
2021/03/09 09:09:28;;;;;;;41.03;20.98;;;5.80;94.20;;;;;;5041347;28;20696;-77
2021/03/09 09:11:53;;;;;;;37.47;17.42;;;6.00;93.80;;;;;;5035334;28;20036;-75
2021/03/09 09:14:19;;;;;;;32.72;16.67;;;6.20;93.20;;;;;;5036104;28;20029;-77
2021/03/09 09:16:46;;;;;;;33.40;16.73;;;6.30;92.50;;;;;;5037042;28;20132;-77
2021/03/09 09:19:12;;;;;;;28.83;14.95;;;6.50;91.70;;;;;;5034967;28;20068;-79
2021/03/09 09:21:45;;;;;;;33.05;16.13;;;6.70;91.80;;;;;;5044018;28;20727;-80
2021/03/09 09:24:29;;;;;;;29.77;14.95;;;6.80;90.80;;;;;;5044272;28;20036;-77
2021/03/09 09:27:03;;;;;;;26.27;14.13;;;7.00;90.00;;;;;;5044215;28;20044;-77
2021/03/09 09:29:29;;;;;;;29.58;14.90;;;7.00;90.30;;;;;;5041933;28;20029;-81
2021/03/09 09:32:00;;;;;;;28.55;14.63;;;7.00;90.10;;;;;;5042702;28;20733;-80
2021/03/09 09:34:36;;;;;;;25.23;13.57;;;7.00;90.10;;;;;;5046923;28;20029;-78
2021/03/09 09:37:10;;;;;;;25.45;13.15;;;7.00;90.30;;;;;;5040355;28;20033;-78
2021/03/09 09:39:36;;;;;;;30.02;13.00;;;7.00;90.00;;;;;;5046363;28;20105;-81
2021/03/09 09:42:02;;;;;;;26.60;13.65;;;7.00;90.10;;;;;;5043129;28;20498;-78
2021/03/09 09:44:28;;;;;;;25.65;13.13;;;7.00;90.20;;;;;;5046259;28;20171;-76
2021/03/09 09:46:55;;;;;;;24.02;12.90;;;7.00;90.00;;;;;;5034583;28;21346;-79
2021/03/09 09:49:21;;;;;;;25.20;12.43;;;6.90;90.20;;;;;;5043833;28;20029;-77
2021/03/09 09:51:47;;;;;;;22.65;11.90;;;6.90;90.50;;;;;;5044913;28;20524;-77
2021/03/09 09:54:13;;;;;;;23.13;11.98;;;7.00;90.30;;;;;;5036067;28;20454;-79
2021/03/09 09:56:39;;;;;;;23.27;12.00;;;7.20;90.20;;;;;;5038058;28;20746;-76
2021/03/09 09:59:06;;;;;;;23.83;12.05;;;7.20;90.10;;;;;;5041292;28;20143;-77
2021/03/09 10:01:32;;;;;;;21.10;11.35;;;7.40;89.50;;;;;;5036982;28;20124;-78
2021/03/09 10:04:00;;;;;;;20.77;10.93;;;7.50;88.30;;;;;;5039616;28;20175;-76
2021/03/09 10:06:40;;;;;;;18.75;10.93;;;7.70;86.00;;;;;;5041856;28;20175;-77
2021/03/09 10:09:19;;;;;;;20.20;10.65;;;7.80;84.00;;;;;;5043672;28;20037;-76
2021/03/09 10:11:46;;;;;;;17.90;8.65;;;7.90;82.70;;;;;;5045892;28;20756;-77
2021/03/09 10:14:12;;;;;;;16.30;8.32;;;8.10;79.80;;;;;;5044742;28;20479;-77
2021/03/09 10:16:40;;;;;;;11.05;6.35;;;8.30;79.20;;;;;;5039057;28;20383;-77
2021/03/09 10:19:10;;;;;;;9.65;5.65;;;8.30;75.40;;;;;;5030156;28;20045;-77
2021/03/09 10:21:36;;;;;;;14.55;6.97;;;8.30;73.40;;;;;;5040745;28;20045;-77
2021/03/09 10:24:03;;;;;;;10.98;6.15;;;8.20;73.10;;;;;;5040398;28;20035;-76
2021/03/09 10:26:34;;;;;;;10.40;5.60;;;8.30;73.10;;;;;;5038814;28;20041;-78
2021/03/09 10:29:06;;;;;;;11.48;5.28;;;8.30;73.20;;;;;;5039191;28;20028;-80
2021/03/09 10:31:48;;;;;;;9.65;4.97;;;8.40;71.50;;;;;;5038164;28;20057;-78
2021/03/09 10:34:17;;;;;;;7.50;4.57;;;8.50;70.00;;;;;;5041015;28;20073;-77
2021/03/09 10:37:00;;;;;;;10.80;5.15;;;8.40;68.80;;;;;;5041306;28;20079;-77
2021/03/09 10:39:27;;;;;;;10.00;4.60;;;8.40;69.00;;;;;;5042497;28;20031;-74
2021/03/09 10:41:53;;;;;;;10.73;5.63;;;8.70;67.40;;;;;;5057320;28;20555;-80
2021/03/09 10:44:31;;;;;;;8.95;5.68;;;8.70;68.50;;;;;;5039459;28;20094;-78
2021/03/09 10:46:59;;;;;;;12.93;6.75;;;8.50;69.80;;;;;;5042093;28;20064;-78
2021/03/09 10:49:25;;;;;;;10.68;5.68;;;8.60;69.20;;;;;;5036451;28;20106;-77
2021/03/09 10:51:55;;;;;;;9.10;5.07;;;8.40;68.80;;;;;;5046024;28;20048;-80
2021/03/09 10:54:21;;;;;;;9.53;5.27;;;8.40;69.60;;;;;;5040468;28;20048;-80
2021/03/09 10:56:47;;;;;;;8.38;4.57;;;8.50;69.30;;;;;;5042338;28;20457;-80
2021/03/09 10:59:13;;;;;;;9.93;5.35;;;8.50;69.70;;;;;;5042726;28;20103;-77
2021/03/09 11:01:39;;;;;;;8.70;4.82;;;8.40;68.70;;;;;;5034554;28;20036;-78
2021/03/09 11:04:05;;;;;;;9.52;5.03;;;8.40;69.80;;;;;;5037843;28;20402;-80
2021/03/09 11:06:30;;;;;;;9.05;5.20;;;8.50;69.00;;;;;;5030803;28;20056;-79
2021/03/09 11:08:56;;;;;;;9.65;5.38;;;8.50;69.10;;;;;;5039008;28;20038;-78
2021/03/09 11:11:22;;;;;;;11.13;6.40;;;8.70;68.90;;;;;;5038196;28;20029;-76
2021/03/09 11:13:48;;;;;;;10.32;5.50;;;8.80;68.90;;;;;;5035458;28;20049;-77
2021/03/09 11:16:14;;;;;;;9.40;5.38;;;8.80;68.20;;;;;;5032089;28;20125;-78
2021/03/09 11:18:40;;;;;;;8.98;5.20;;;8.80;68.30;;;;;;5037211;28;20559;-78
2021/03/09 11:21:07;;;;;;;7.47;4.53;;;8.80;68.60;;;;;;5037453;28;20041;-76
2021/03/09 11:23:32;;;;;;;8.32;5.43;;;8.70;69.00;;;;;;5041437;28;20063;-77
2021/03/09 11:25:58;;;;;;;9.32;5.03;;;8.70;68.20;;;;;;5037003;28;20545;-77
2021/03/09 11:28:24;;;;;;;8.32;5.53;;;8.80;68.10;;;;;;5032948;28;20542;-79
2021/03/09 11:30:50;;;;;;;8.77;5.50;;;8.80;68.00;;;;;;5036908;28;20044;-78
2021/03/09 11:33:16;;;;;;;11.68;6.63;;;8.90;67.60;;;;;;5040913;28;20033;-76
2021/03/09 11:35:42;;;;;;;10.25;6.05;;;9.00;66.90;;;;;;5038071;28;20046;-76
2021/03/09 11:38:09;;;;;;;9.90;5.80;;;9.00;66.10;;;;;;5038956;28;20041;-78
2021/03/09 11:40:35;;;;;;;11.38;6.45;;;9.10;66.10;;;;;;5049674;28;20070;-77
2021/03/09 11:43:01;;;;;;;12.63;6.28;;;10.20;66.40;;;;;;5039954;28;20056;-79
2021/03/09 11:45:27;;;;;;;10.77;6.40;;;9.10;65.30;;;;;;5035171;28;20133;-76
2021/03/09 11:47:52;;;;;;;10.82;5.80;;;9.00;66.40;;;;;;5035788;28;20057;-79
2021/03/09 11:50:18;;;;;;;9.40;6.05;;;9.00;66.20;;;;;;5036404;28;20041;-76
2021/03/09 11:52:44;;;;;;;11.45;6.57;;;9.20;64.30;;;;;;5038133;28;20047;-78
2021/03/09 11:55:11;;;;;;;9.02;5.82;;;9.10;64.40;;;;;;5051662;28;20532;-77
2021/03/09 11:57:39;;;;;;;13.13;6.20;;;9.20;63.40;;;;;;5050158;28;20068;-77
2021/03/09 12:00:07;;;;;;;12.60;6.05;;;9.00;63.80;;;;;;5054630;28;20052;-79
2021/03/09 12:02:33;;;;;;;10.73;7.05;;;9.00;65.00;;;;;;5039102;28;20045;-77
2021/03/09 12:04:59;;;;;;;13.02;6.90;;;9.10;65.30;;;;;;5038901;28;20083;-77
2021/03/09 12:07:25;;;;;;;12.80;7.47;;;9.00;65.00;;;;;;5036011;28;20095;-78
2021/03/09 12:09:51;;;;;;;12.88;7.90;;;9.10;64.70;;;;;;5038117;28;20033;-76
2021/03/09 12:12:17;;;;;;;11.00;6.45;;;9.20;64.60;;;;;;5033021;28;20032;-76
2021/03/09 12:14:43;;;;;;;11.15;6.45;;;9.40;64.80;;;;;;5040126;28;20099;-77
2021/03/09 12:17:09;;;;;;;12.13;7.13;;;9.30;64.50;;;;;;5037803;28;20025;-77
2021/03/09 12:19:35;;;;;;;13.35;6.57;;;9.20;64.80;;;;;;5037057;28;20102;-78
2021/03/09 12:22:02;;;;;;;27.67;9.10;;;9.30;64.10;;;;;;5037931;28;20497;-76
2021/03/09 12:24:30;;;;;;;14.13;7.75;;;9.40;63.70;;;;;;5050790;28;20057;-76
2021/03/09 12:26:55;;;;;;;13.82;7.13;;;9.50;64.10;;;;;;5036721;28;20094;-77
2021/03/09 12:29:21;;;;;;;14.15;8.07;;;9.40;64.10;;;;;;5037249;28;20033;-82
2021/03/09 12:31:47;;;;;;;14.43;7.72;;;9.40;63.90;;;;;;5038491;28;20052;-76
2021/03/09 12:34:13;;;;;;;16.75;7.82;;;9.40;63.90;;;;;;5037989;28;20439;-76
2021/03/09 12:36:39;;;;;;;20.90;8.30;;;9.50;63.50;;;;;;5037872;28;20045;-77
2021/03/09 12:39:05;;;;;;;12.25;7.47;;;9.50;63.60;;;;;;5035184;28;20135;-79
2021/03/09 12:41:30;;;;;;;15.77;8.48;;;9.40;63.00;;;;;;5043280;28;20033;-80
2021/03/09 12:43:56;;;;;;;18.08;8.07;;;9.40;63.80;;;;;;5034498;28;20045;-76
2021/03/09 12:46:22;;;;;;;15.65;8.02;;;9.30;64.10;;;;;;5038596;28;20053;-77
2021/03/09 12:48:48;;;;;;;11.80;6.93;;;9.20;64.00;;;;;;5050358;28;20037;-76
2021/03/09 12:51:13;;;;;;;15.98;8.05;;;9.20;64.90;;;;;;5037788;28;20033;-76
2021/03/09 12:53:39;;;;;;;14.20;7.40;;;9.20;64.70;;;;;;5033567;28;20988;-76